Time;durP1;ratioP1;P1;durP2;ratioP2;P2;SDS_P1;SDS_P2;PMS_P1;PMS_P2;Temp;Humidity;BMP_temperature;BMP_pressure;BME280_temperature;BME280_humidity;BME280_pressure;Samples;Min_cycle;Max_cycle;Signal;HPM_P1;HPM_P2
2023/02/10 00:01:19;;;;;;;;;;;;;;;;;;5107901;28;20388;-78
2023/02/10 00:03:44;;;;;;;;;;;;;;;;;;5107495;28;19993;-79
2023/02/10 00:06:10;;;;;;;;;;;;;;;;;;5106947;28;19912;-79
2023/02/10 00:08:36;;;;;;;;;;;;;;;;;;5106553;28;19909;-78
2023/02/10 00:11:02;;;;;;;;;;;;;;;;;;5106800;28;19916;-78
2023/02/10 00:13:28;;;;;;;;;;;;;;;;;;5106107;28;19908;-78
2023/02/10 00:15:54;;;;;;;;;;;;;;;;;;5107484;28;19908;-78
2023/02/10 00:18:20;;;;;;;;;;;;;;;;;;5106348;28;19908;-78
2023/02/10 00:20:46;;;;;;;;;;;;;;;;;;5106859;28;19914;-76
2023/02/10 00:23:12;;;;;;;;;;;;;;;;;;5107730;28;19979;-77
2023/02/10 00:25:37;;;;;;;;;;;;;;;;;;5107352;28;20011;-77
2023/02/10 00:28:03;;;;;;;;;;;;;;;;;;5107266;28;20384;-78
2023/02/10 00:30:29;;;;;;;;;;;;;;;;;;5108381;28;19908;-78
2023/02/10 00:32:55;;;;;;;;;;;;;;;;;;5108266;28;19934;-78
2023/02/10 00:35:21;;;;;;;;;;;;;;;;;;5105997;28;19930;-78
2023/02/10 00:37:47;;;;;;;;;;;;;;;;;;5105674;28;19908;-78
2023/02/10 00:40:13;;;;;;;;;;;;;;;;;;5107118;28;19923;-78
2023/02/10 00:42:39;;;;;;;;;;;;;;;;;;5105875;28;19908;-78
2023/02/10 00:45:05;;;;;;;;;;;;;;;;;;5105269;28;19969;-79
2023/02/10 00:47:30;;;;;;;;;;;;;;;;;;5106529;28;19915;-78
2023/02/10 00:49:56;;;;;;;;;;;;;;;;;;5107472;28;19908;-77
2023/02/10 00:52:22;;;;;;;;;;;;;;;;;;5106100;28;19923;-78
2023/02/10 00:54:48;;;;;;;;;;;;;;;;;;5105156;28;19908;-78
2023/02/10 00:57:14;;;;;;;;;;;;;;;;;;5107091;28;19908;-76
2023/02/10 00:59:40;;;;;;;;;;;;;;;;;;5105619;28;19908;-78
2023/02/10 01:02:06;;;;;;;;;;;;;;;;;;5104981;28;19916;-79
2023/02/10 01:04:32;;;;;;;;;;;;;;;;;;5105360;28;19912;-77
2023/02/10 01:06:58;;;;;;;;;;;;;;;;;;5105678;28;19930;-78
2023/02/10 01:09:24;;;;;;;;;;;;;;;;;;5105926;28;19930;-77
2023/02/10 01:11:50;;;;;;;;;;;;;;;;;;5104616;28;19908;-78
2023/02/10 01:14:15;;;;;;;;;;;;;;;;;;5105627;28;19908;-78
2023/02/10 01:16:41;;;;;;;;;;;;;;;;;;5104315;28;19919;-78
2023/02/10 01:19:07;;;;;;;;;;;;;;;;;;5105396;28;19908;-78
2023/02/10 01:21:33;;;;;;;;;;;;;;;;;;5106737;28;19909;-77
2023/02/10 01:23:59;;;;;;;;;;;;;;;;;;5106636;28;19943;-78
2023/02/10 01:26:25;;;;;;;;;;;;;;;;;;5106054;28;19913;-78
2023/02/10 01:28:51;;;;;;;;;;;;;;;;;;5105571;28;19908;-77
2023/02/10 01:31:17;;;;;;;;;;;;;;;;;;5105268;28;19905;-77
2023/02/10 01:33:43;;;;;;;;;;;;;;;;;;5105904;28;19915;-78
2023/02/10 01:36:09;;;;;;;;;;;;;;;;;;5106282;28;19905;-77
2023/02/10 01:38:35;;;;;;;;;;;;;;;;;;5104742;28;19919;-80
2023/02/10 01:41:00;;;;;;;;;;;;;;;;;;5105989;28;19904;-78
2023/02/10 01:43:26;;;;;;;;;;;;;;;;;;5105646;28;19934;-77
2023/02/10 01:45:52;;;;;;;;;;;;;;;;;;5103019;28;19912;-77
2023/02/10 01:48:18;;;;;;;;;;;;;;;;;;5104636;28;19908;-77
2023/02/10 01:50:44;;;;;;;;;;;;;;;;;;5104808;28;19915;-78
2023/02/10 01:53:10;;;;;;;;;;;;;;;;;;5105328;28;20135;-78
2023/02/10 01:55:36;;;;;;;;;;;;;;;;;;5104625;28;19908;-78
2023/02/10 02:00:38;;;;;;;;;;;;;;;;;;5242099;22;19931;-82
2023/02/10 02:03:07;;;;;;;;;;;;;;;;;;5058686;28;19897;-82
2023/02/10 02:05:39;;;;;;;;;;;;;;;;;;5272999;22;19908;-83
2023/02/10 02:08:08;;;;;;;;;;;;;;;;;;5301077;22;19932;-83
2023/02/10 02:16:04;;;;;;;;;;;;;;;;;;5207875;22;19985;-83
2023/02/10 06:06:23;;;;;;;;;;;;;;;;;;1347911;22;20198;-80
2023/02/10 06:11:34;;;;;;;;;;;;;;;;;;5045953;28;19939;-80
2023/02/10 06:14:00;;;;;;;;;;;;;;;;;;5039255;28;20004;-81
2023/02/10 06:16:32;;;;;;;;;;;;;;;;;;5052399;28;19913;-82
2023/02/10 06:19:01;;;;;;;;;;;;;;;;;;5055161;28;19913;-83
2023/02/10 06:21:26;;;;;;;;;;;;;;;;;;5049294;28;19914;-81
2023/02/10 06:23:52;;;;;;;;;;;;;;;;;;5049130;28;19931;-82
2023/02/10 06:26:18;;;;;;;;;;;;;;;;;;5050777;28;19905;-81
2023/02/10 06:28:44;;;;;;;;;;;;;;;;;;5048575;28;19909;-81
2023/02/10 06:31:10;;;;;;;;;;;;;;;;;;5045783;28;19910;-81
2023/02/10 06:33:36;;;;;;;;;;;;;;;;;;5047368;28;19931;-81
2023/02/10 06:36:04;;;;;;;;;;;;;;;;;;5048384;28;19912;-81
2023/02/10 06:38:30;;;;;;;;;;;;;;;;;;5053559;28;19902;-82
2023/02/10 06:40:56;;;;;;;;;;;;;;;;;;5056700;28;19977;-82
2023/02/10 06:43:22;;;;;;;;;;;;;;;;;;5056537;28;19904;-81
2023/02/10 06:45:48;;;;;;;;;;;;;;;;;;5057408;28;19905;-82
2023/02/10 06:48:14;;;;;;;;;;;;;;;;;;5062170;28;19917;-82
2023/02/10 06:50:40;;;;;;;;;;;;;;;;;;5057581;28;19897;-81
2023/02/10 06:53:06;;;;;;;;;;;;;;;;;;5061594;28;19960;-81
2023/02/10 06:55:32;;;;;;;;;;;;;;;;;;5059792;28;19912;-82
2023/02/10 06:57:58;;;;;;;;;;;;;;;;;;5052337;28;19909;-82
2023/02/10 07:00:24;;;;;;;;;;;;;;;;;;5048674;28;19914;-82
2023/02/10 07:02:50;;;;;;;;;;;;;;;;;;5047155;28;19909;-81
2023/02/10 07:05:16;;;;;;;;;;;;;;;;;;5050988;28;19917;-81
2023/02/10 07:07:42;;;;;;;;;;;;;;;;;;5052310;28;19912;-81
2023/02/10 07:10:08;;;;;;;;;;;;;;;;;;5052463;28;19921;-81
2023/02/10 07:15:08;;;;;;;;;;;;;;;;;;5039639;28;19925;-81
2023/02/10 07:17:36;;;;;;;;;;;;;;;;;;5056252;28;19913;-81
2023/02/10 07:20:02;;;;;;;;;;;;;;;;;;5049803;28;19949;-81
2023/02/10 07:22:28;;;;;;;;;;;;;;;;;;5032810;28;19921;-81
2023/02/10 07:24:54;;;;;;;;;;;;;;;;;;5053160;28;19921;-81
2023/02/10 07:27:20;;;;;;;;;;;;;;;;;;5050762;28;19909;-81
2023/02/10 07:29:46;;;;;;;;;;;;;;;;;;5033882;28;19980;-81
2023/02/10 07:32:12;;;;;;;;;;;;;;;;;;5051259;28;19920;-81
2023/02/10 07:34:40;;;;;;;;;;;;;;;;;;5132617;22;19922;-83
2023/02/10 07:37:06;;;;;;;;;;;;;;;;;;5052209;28;19917;-81
2023/02/10 07:39:32;;;;;;;;;;;;;;;;;;5093285;22;19916;-81
2023/02/10 07:41:58;;;;;;;;;;;;;;;;;;5051890;28;19909;-81
2023/02/10 07:44:24;;;;;;;;;;;;;;;;;;5050394;28;19913;-81
2023/02/10 07:46:50;;;;;;;;;;;;;;;;;;5052061;28;19909;-81
2023/02/10 07:49:16;;;;;;;;;;;;;;;;;;5049793;28;20432;-81
2023/02/10 07:51:42;;;;;;;;;;;;;;;;;;5052596;28;19909;-81
2023/02/10 07:54:08;;;;;;;;;;;;;;;;;;5054408;28;19917;-81
2023/02/10 07:56:34;;;;;;;;;;;;;;;;;;5051558;28;19955;-81
2023/02/10 07:59:00;;;;;;;;;;;;;;;;;;5068162;23;20301;-78
2023/02/10 08:01:26;;;;;;;;;;;;;;;;;;5045262;28;19929;-78
2023/02/10 08:03:51;;;;;;;;;;;;;;;;;;5046115;28;20115;-78
2023/02/10 08:06:17;;;;;;;;;;;;;;;;;;5047571;28;19917;-78
2023/02/10 08:08:43;;;;;;;;;;;;;;;;;;5046371;28;19909;-79
2023/02/10 08:11:09;;;;;;;;;;;;;;;;;;5046196;28;19909;-78
2023/02/10 08:13:35;;;;;;;;;;;;;;;;;;5047426;28;19924;-78
2023/02/10 08:16:01;;;;;;;;;;;;;;;;;;5044449;28;19909;-78
2023/02/10 08:18:27;;;;;;;;;;;;;;;;;;5043382;28;19913;-79
2023/02/10 08:20:53;;;;;;;;;;;;;;;;;;5044541;28;19916;-77
2023/02/10 08:23:19;;;;;;;;;;;;;;;;;;5043877;28;19913;-78
2023/02/10 08:25:45;;;;;;;;;;;;;;;;;;5042470;28;19917;-77
2023/02/10 08:28:10;;;;;;;;;;;;;;;;;;5042307;28;19908;-77
2023/02/10 08:30:36;;;;;;;;;;;;;;;;;;5043973;28;19960;-78
2023/02/10 08:33:02;;;;;;;;;;;;;;;;;;5046754;28;19955;-77
2023/02/10 08:35:28;;;;;;;;;;;;;;;;;;5046758;28;19962;-78
2023/02/10 08:37:54;;;;;;;;;;;;;;;;;;5044947;28;19909;-79
2023/02/10 08:40:20;;;;;;;;;;;;;;;;;;5045693;28;19909;-79
2023/02/10 08:42:46;;;;;;;;;;;;;;;;;;5046114;28;19932;-78
2023/02/10 08:45:12;;;;;;;;;;;;;;;;;;5044825;28;19913;-82
2023/02/10 08:47:38;;;;;;;;;;;;;;;;;;5045162;28;19924;-78
2023/02/10 08:50:03;;;;;;;;;;;;;;;;;;5045694;28;19932;-78
2023/02/10 08:52:29;;;;;;;;;;;;;;;;;;5044276;28;19936;-78
2023/02/10 08:54:56;;;;;;;;;;;;;;;;;;5043985;28;19973;-79
2023/02/10 08:57:22;;;;;;;;;;;;;;;;;;5044667;28;20413;-78
2023/02/10 08:59:48;;;;;;;;;;;;;;;;;;5043243;28;19924;-77
2023/02/10 09:02:14;;;;;;;;;;;;;;;;;;5039174;28;19949;-81
2023/02/10 09:04:39;;;;;;;;;;;;;;;;;;5039500;28;19917;-79
2023/02/10 09:07:05;;;;;;;;;;;;;;;;;;5043393;28;19916;-79
2023/02/10 09:09:31;;;;;;;;;;;;;;;;;;5041284;28;20254;-77
2023/02/10 09:11:57;;;;;;;;;;;;;;;;;;5040651;28;20358;-78
2023/02/10 09:14:23;;;;;;;;;;;;;;;;;;5042320;28;19910;-79
2023/02/10 09:16:51;;;;;;;;;;;;;;;;;;5039792;28;19916;-79
2023/02/10 09:19:17;;;;;;;;;;;;;;;;;;5040255;28;19975;-78
2023/02/10 09:21:43;;;;;;;;;;;;;;;;;;5040643;28;19909;-77
2023/02/10 09:24:09;;;;;;;;;;;;;;;;;;5043142;28;19909;-76
2023/02/10 09:26:34;;;;;;;;;;;;;;;;;;5041780;28;19971;-77
2023/02/10 09:29:00;;;;;;;;;;;;;;;;;;5041544;28;19916;-79
2023/02/10 09:31:26;;;;;;;;;;;;;;;;;;5042994;28;20547;-79
2023/02/10 09:33:52;;;;;;;;;;;;;;;;;;5042539;28;19975;-77
2023/02/10 09:36:18;;;;;;;;;;;;;;;;;;5041242;28;19936;-79
2023/02/10 09:38:44;;;;;;;;;;;;;;;;;;5041268;28;20009;-80
2023/02/10 09:41:10;;;;;;;;;;;;;;;;;;5042415;28;19913;-79
2023/02/10 09:43:36;;;;;;;;;;;;;;;;;;5040074;28;19909;-77
2023/02/10 09:46:02;;;;;;;;;;;;;;;;;;5039500;28;19913;-78
2023/02/10 09:48:28;;;;;;;;;;;;;;;;;;5039035;28;19909;-77
2023/02/10 09:50:53;;;;;;;;;;;;;;;;;;5038312;28;19909;-79
2023/02/10 09:53:20;;;;;;;;;;;;;;;;;;5038892;28;20309;-78
2023/02/10 09:55:46;;;;;;;;;;;;;;;;;;5038617;28;19918;-79
2023/02/10 09:58:12;;;;;;;;;;;;;;;;;;5041122;28;19921;-79
2023/02/10 10:00:38;;;;;;;;;;;;;;;;;;5040769;28;19916;-78
2023/02/10 10:03:04;;;;;;;;;;;;;;;;;;5039827;28;20110;-79
2023/02/10 10:05:30;;;;;;;;;;;;;;;;;;5039836;28;19920;-78
2023/02/10 10:07:56;;;;;;;;;;;;;;;;;;5038375;28;19910;-78
2023/02/10 10:10:22;;;;;;;;;;;;;;;;;;5038879;28;19915;-78
2023/02/10 10:12:48;;;;;;;;;;;;;;;;;;5039517;28;19932;-78
2023/02/10 10:15:14;;;;;;;;;;;;;;;;;;5037736;28;19909;-79
2023/02/10 10:17:39;;;;;;;;;;;;;;;;;;5037610;28;19909;-77
2023/02/10 10:20:05;;;;;;;;;;;;;;;;;;5040834;28;20389;-78
2023/02/10 10:22:31;;;;;;;;;;;;;;;;;;5035495;28;19909;-78
2023/02/10 10:24:57;;;;;;;;;;;;;;;;;;5035455;28;19975;-79
2023/02/10 10:27:23;;;;;;;;;;;;;;;;;;5036280;28;19909;-78
2023/02/10 10:29:49;;;;;;;;;;;;;;;;;;5036243;28;19909;-78
2023/02/10 10:32:15;;;;;;;;;;;;;;;;;;5034440;28;19913;-78
2023/02/10 10:34:41;;;;;;;;;;;;;;;;;;5034072;28;19977;-79
2023/02/10 10:37:07;;;;;;;;;;;;;;;;;;5036319;28;19933;-78
2023/02/10 10:39:33;;;;;;;;;;;;;;;;;;5035947;28;19909;-79
2023/02/10 10:41:59;;;;;;;;;;;;;;;;;;5037821;28;19909;-79
2023/02/10 10:44:24;;;;;;;;;;;;;;;;;;5037988;28;19909;-79
2023/02/10 10:46:50;;;;;;;;;;;;;;;;;;5040284;28;19909;-79
2023/02/10 10:49:16;;;;;;;;;;;;;;;;;;5041329;28;19909;-78
2023/02/10 10:51:42;;;;;;;;;;;;;;;;;;5042188;28;19999;-79
2023/02/10 10:54:09;;;;;;;;;;;;;;;;;;5040459;28;19909;-79
2023/02/10 10:56:35;;;;;;;;;;;;;;;;;;5040584;28;19913;-79
2023/02/10 10:59:01;;;;;;;;;;;;;;;;;;5039745;28;19932;-79
2023/02/10 11:01:27;;;;;;;;;;;;;;;;;;5039241;28;19909;-79
2023/02/10 11:03:52;;;;;;;;;;;;;;;;;;5036353;28;19909;-78
2023/02/10 11:06:19;;;;;;;;;;;;;;;;;;5034943;28;19914;-81
2023/02/10 11:08:44;;;;;;;;;;;;;;;;;;5032092;28;20294;-78
2023/02/10 11:11:11;;;;;;;;;;;;;;;;;;5032717;28;19909;-78
2023/02/10 11:13:36;;;;;;;;;;;;;;;;;;5032260;28;20335;-78
2023/02/10 11:16:02;;;;;;;;;;;;;;;;;;5034768;28;19913;-80
2023/02/10 11:18:28;;;;;;;;;;;;;;;;;;5032552;28;19915;-78
2023/02/10 11:20:54;;;;;;;;;;;;;;;;;;5032528;28;19924;-77
2023/02/10 11:23:20;;;;;;;;;;;;;;;;;;5032336;28;19910;-77
2023/02/10 11:25:47;;;;;;;;;;;;;;;;;;5032048;28;19924;-77
2023/02/10 11:28:13;;;;;;;;;;;;;;;;;;5032210;28;19917;-77
2023/02/10 11:30:39;;;;;;;;;;;;;;;;;;5032474;28;20437;-78
2023/02/10 11:33:05;;;;;;;;;;;;;;;;;;5034192;28;19913;-77
2023/02/10 11:35:31;;;;;;;;;;;;;;;;;;5035369;28;19934;-78
2023/02/10 11:37:57;;;;;;;;;;;;;;;;;;5035190;28;19954;-79
2023/02/10 11:40:23;;;;;;;;;;;;;;;;;;5037244;28;19913;-77
2023/02/10 11:42:48;;;;;;;;;;;;;;;;;;5036385;28;19916;-77
2023/02/10 11:45:14;;;;;;;;;;;;;;;;;;5035323;28;19913;-78
2023/02/10 11:47:40;;;;;;;;;;;;;;;;;;5034027;28;20329;-78
2023/02/10 11:50:06;;;;;;;;;;;;;;;;;;5035346;28;20004;-78
2023/02/10 11:52:33;;;;;;;;;;;;;;;;;;5036596;28;19909;-78
2023/02/10 11:54:59;;;;;;;;;;;;;;;;;;5035969;28;19916;-77
2023/02/10 12:00:10;;;;;;;;;;;;;;;;;;5036043;28;19963;-78
2023/02/10 12:02:36;;;;;;;;;;;;;;;;;;5034823;28;19909;-78
2023/02/10 12:05:02;;;;;;;;;;;;;;;;;;5034303;28;19913;-78
2023/02/10 12:07:27;;;;;;;;;;;;;;;;;;5035684;28;19917;-78
2023/02/10 12:09:56;;;;;;;;;;;;;;;;;;5034663;28;20357;-78
2023/02/10 12:12:22;;;;;;;;;;;;;;;;;;5036189;28;19909;-77
2023/02/10 12:14:48;;;;;;;;;;;;;;;;;;5034563;28;19909;-78
2023/02/10 12:17:14;;;;;;;;;;;;;;;;;;5035162;28;19988;-79
2023/02/10 12:19:40;;;;;;;;;;;;;;;;;;5034438;28;19913;-79
2023/02/10 12:22:08;;;;;;;;;;;;;;;;;;5034365;28;19910;-82
2023/02/10 12:24:34;;;;;;;;;;;;;;;;;;5034027;28;19910;-78
2023/02/10 12:27:00;;;;;;;;;;;;;;;;;;5035353;28;19909;-77
2023/02/10 12:29:26;;;;;;;;;;;;;;;;;;5033909;28;19909;-78
2023/02/10 12:31:52;;;;;;;;;;;;;;;;;;5034358;28;20279;-78
2023/02/10 12:34:18;;;;;;;;;;;;;;;;;;5034972;28;20365;-78
2023/02/10 12:36:44;;;;;;;;;;;;;;;;;;5033728;28;19932;-78
2023/02/10 12:39:10;;;;;;;;;;;;;;;;;;5034687;28;19952;-78
2023/02/10 12:41:36;;;;;;;;;;;;;;;;;;5035168;28;19996;-78
2023/02/10 12:44:01;;;;;;;;;;;;;;;;;;5033702;28;20011;-77
2023/02/10 12:46:27;;;;;;;;;;;;;;;;;;5033714;28;19913;-78
2023/02/10 12:48:53;;;;;;;;;;;;;;;;;;5033081;28;19909;-78
2023/02/10 12:51:19;;;;;;;;;;;;;;;;;;5033878;28;20370;-81
2023/02/10 12:53:45;;;;;;;;;;;;;;;;;;5033580;28;19920;-78
2023/02/10 12:56:12;;;;;;;;;;;;;;;;;;5034607;28;19909;-79
2023/02/10 12:58:39;;;;;;;;;;;;;;;;;;5032452;28;20396;-82
2023/02/10 13:01:05;;;;;;;;;;;;;;;;;;5034863;28;19913;-78
2023/02/10 13:03:32;;;;;;;;;;;;;;;;;;5034553;28;19915;-78
2023/02/10 13:05:59;;;;;;;;;;;;;;;;;;5033346;28;19913;-78
2023/02/10 13:08:25;;;;;;;;;;;;;;;;;;5034000;28;19936;-77
2023/02/10 13:10:51;;;;;;;;;;;;;;;;;;5033542;28;20365;-78
2023/02/10 13:13:17;;;;;;;;;;;;;;;;;;5034087;28;20289;-79
2023/02/10 13:15:44;;;;;;;;;;;;;;;;;;5033624;28;19963;-77
2023/02/10 13:18:10;;;;;;;;;;;;;;;;;;5036594;28;19909;-77
2023/02/10 13:20:36;;;;;;;;;;;;;;;;;;5038471;28;19955;-77
2023/02/10 13:23:02;;;;;;;;;;;;;;;;;;5039497;28;19909;-78
2023/02/10 13:25:28;;;;;;;;;;;;;;;;;;5036732;28;19928;-78
2023/02/10 13:27:54;;;;;;;;;;;;;;;;;;5036425;28;19910;-77
2023/02/10 13:30:20;;;;;;;;;;;;;;;;;;5035879;28;19913;-79
2023/02/10 13:32:45;;;;;;;;;;;;;;;;;;5039660;28;19917;-79
2023/02/10 13:35:11;;;;;;;;;;;;;;;;;;5038640;28;20004;-78
2023/02/10 13:37:37;;;;;;;;;;;;;;;;;;5037219;28;19913;-79
2023/02/10 13:40:03;;;;;;;;;;;;;;;;;;5038717;28;19909;-79
2023/02/10 13:42:29;;;;;;;;;;;;;;;;;;5038540;28;19932;-78
2023/02/10 13:44:55;;;;;;;;;;;;;;;;;;5039685;28;19917;-77
2023/02/10 13:47:21;;;;;;;;;;;;;;;;;;5038261;28;19910;-77
2023/02/10 13:49:47;;;;;;;;;;;;;;;;;;5037578;28;20380;-76
2023/02/10 13:52:13;;;;;;;;;;;;;;;;;;5041165;28;19913;-77
2023/02/10 13:54:39;;;;;;;;;;;;;;;;;;5038171;28;19932;-77
2023/02/10 13:57:05;;;;;;;;;;;;;;;;;;5038534;28;19909;-77
2023/02/10 13:59:30;;;;;;;;;;;;;;;;;;5035874;28;19940;-76
2023/02/10 14:01:56;;;;;;;;;;;;;;;;;;5033441;28;19909;-77
2023/02/10 14:04:22;;;;;;;;;;;;;;;;;;5032849;28;19910;-77
2023/02/10 14:06:48;;;;;;;;;;;;;;;;;;5033017;28;20340;-76
2023/02/10 14:09:14;;;;;;;;;;;;;;;;;;5032268;28;19909;-76
2023/02/10 14:11:40;;;;;;;;;;;;;;;;;;5032717;28;19909;-77
2023/02/10 14:14:06;;;;;;;;;;;;;;;;;;5033993;28;20397;-76
2023/02/10 14:16:32;;;;;;;;;;;;;;;;;;5032462;28;19909;-77
2023/02/10 14:18:58;;;;;;;;;;;;;;;;;;5032540;28;19910;-76
2023/02/10 14:21:24;;;;;;;;;;;;;;;;;;5034505;28;19917;-75
2023/02/10 14:23:50;;;;;;;;;;;;;;;;;;5033992;28;19909;-77
2023/02/10 14:26:16;;;;;;;;;;;;;;;;;;5033228;28;19963;-77
2023/02/10 14:28:42;;;;;;;;;;;;;;;;;;5032322;28;20337;-77
2023/02/10 14:31:07;;;;;;;;;;;;;;;;;;5033737;28;19916;-77
2023/02/10 14:33:33;;;;;;;;;;;;;;;;;;5034725;28;20354;-78
2023/02/10 14:35:59;;;;;;;;;;;;;;;;;;5033628;28;19959;-76
2023/02/10 14:38:25;;;;;;;;;;;;;;;;;;5033630;28;19967;-77
2023/02/10 14:40:51;;;;;;;;;;;;;;;;;;5033436;28;19909;-76
2023/02/10 14:43:17;;;;;;;;;;;;;;;;;;5034699;28;20325;-77
2023/02/10 14:45:43;;;;;;;;;;;;;;;;;;5032386;28;19913;-75
2023/02/10 14:48:09;;;;;;;;;;;;;;;;;;5033227;28;19910;-76
2023/02/10 14:50:35;;;;;;;;;;;;;;;;;;5033008;28;20273;-77
2023/02/10 14:53:01;;;;;;;;;;;;;;;;;;5034855;28;20389;-77
2023/02/10 14:55:27;;;;;;;;;;;;;;;;;;5033926;28;19915;-76
2023/02/10 14:57:53;;;;;;;;;;;;;;;;;;5032409;28;20447;-77
2023/02/10 15:00:18;;;;;;;;;;;;;;;;;;5033655;28;20012;-79
2023/02/10 15:02:44;;;;;;;;;;;;;;;;;;5033446;28;19913;-76
2023/02/10 15:05:10;;;;;;;;;;;;;;;;;;5033457;28;19936;-77
2023/02/10 15:07:36;;;;;;;;;;;;;;;;;;5034179;28;19909;-75
2023/02/10 15:10:02;;;;;;;;;;;;;;;;;;5037437;28;19916;-77
2023/02/10 15:12:28;;;;;;;;;;;;;;;;;;5035993;28;20374;-77
2023/02/10 15:14:57;;;;;;;;;;;;;;;;;;5035669;28;19916;-75
2023/02/10 15:17:23;;;;;;;;;;;;;;;;;;5035686;28;20412;-77
2023/02/10 15:19:49;;;;;;;;;;;;;;;;;;5035623;28;19909;-77
2023/02/10 15:22:15;;;;;;;;;;;;;;;;;;5036650;28;19920;-76
2023/02/10 15:24:41;;;;;;;;;;;;;;;;;;5035318;28;20263;-76
2023/02/10 15:27:06;;;;;;;;;;;;;;;;;;5036918;28;19910;-78
2023/02/10 15:29:32;;;;;;;;;;;;;;;;;;5036460;28;19932;-77
2023/02/10 15:31:58;;;;;;;;;;;;;;;;;;5036540;28;19909;-77
2023/02/10 15:34:24;;;;;;;;;;;;;;;;;;5035674;28;19915;-76
2023/02/10 15:36:50;;;;;;;;;;;;;;;;;;5036954;28;19916;-76
2023/02/10 15:39:16;;;;;;;;;;;;;;;;;;5035276;28;19909;-77
2023/02/10 15:41:43;;;;;;;;;;;;;;;;;;5035538;28;19909;-76
2023/02/10 15:44:09;;;;;;;;;;;;;;;;;;5034823;28;19909;-75
2023/02/10 15:46:34;;;;;;;;;;;;;;;;;;5035358;28;19913;-77
2023/02/10 15:49:00;;;;;;;;;;;;;;;;;;5036728;28;19925;-77
2023/02/10 15:51:26;;;;;;;;;;;;;;;;;;5036844;28;19963;-78
2023/02/10 15:53:54;;;;;;;;;;;;;;;;;;5035330;28;19910;-76
2023/02/10 15:56:20;;;;;;;;;;;;;;;;;;5035319;28;20008;-77
2023/02/10 15:58:46;;;;;;;;;;;;;;;;;;5034794;28;20366;-79
2023/02/10 16:01:12;;;;;;;;;;;;;;;;;;5035294;28;19935;-77
2023/02/10 16:03:38;;;;;;;;;;;;;;;;;;5035742;28;20005;-77
2023/02/10 16:06:04;;;;;;;;;;;;;;;;;;5033152;28;19920;-78
2023/02/10 16:08:30;;;;;;;;;;;;;;;;;;5036505;28;19931;-76
2023/02/10 16:10:56;;;;;;;;;;;;;;;;;;5035823;28;20387;-76
2023/02/10 16:13:22;;;;;;;;;;;;;;;;;;5036588;28;19909;-76
2023/02/10 16:15:49;;;;;;;;;;;;;;;;;;5035059;28;19909;-77
2023/02/10 16:18:15;;;;;;;;;;;;;;;;;;5033997;28;19910;-77
2023/02/10 16:20:41;;;;;;;;;;;;;;;;;;5034824;28;20003;-77
2023/02/10 16:23:07;;;;;;;;;;;;;;;;;;5034963;28;20334;-77
2023/02/10 16:25:32;;;;;;;;;;;;;;;;;;5030333;28;20385;-76
2023/02/10 16:27:58;;;;;;;;;;;;;;;;;;5033464;28;20004;-75
2023/02/10 16:30:25;;;;;;;;;;;;;;;;;;5033896;28;20004;-73
2023/02/10 16:32:51;;;;;;;;;;;;;;;;;;5034706;28;19955;-76
2023/02/10 16:35:17;;;;;;;;;;;;;;;;;;5035001;28;19913;-77
2023/02/10 16:37:43;;;;;;;;;;;;;;;;;;5034459;28;20392;-77
2023/02/10 16:40:09;;;;;;;;;;;;;;;;;;5032801;28;19913;-75
2023/02/10 16:42:35;;;;;;;;;;;;;;;;;;5034738;28;20305;-75
2023/02/10 16:45:01;;;;;;;;;;;;;;;;;;5032723;28;20215;-74
2023/02/10 16:47:26;;;;;;;;;;;;;;;;;;5032540;28;19916;-75
2023/02/10 16:49:52;;;;;;;;;;;;;;;;;;5034029;28;19913;-75
2023/02/10 16:52:21;;;;;;;;;;;;;;;;;;5033987;28;19913;-75
2023/02/10 16:54:47;;;;;;;;;;;;;;;;;;5033812;28;19921;-74
2023/02/10 16:57:13;;;;;;;;;;;;;;;;;;5034073;28;19983;-74
2023/02/10 16:59:39;;;;;;;;;;;;;;;;;;5033986;28;19924;-74
2023/02/10 17:02:05;;;;;;;;;;;;;;;;;;5033837;28;20472;-74
2023/02/10 17:04:31;;;;;;;;;;;;;;;;;;5033400;28;19945;-75
2023/02/10 17:06:57;;;;;;;;;;;;;;;;;;5037979;28;19913;-77
2023/02/10 17:09:23;;;;;;;;;;;;;;;;;;5039412;28;19909;-75
2023/02/10 17:11:49;;;;;;;;;;;;;;;;;;5033470;28;19916;-75
2023/02/10 17:14:15;;;;;;;;;;;;;;;;;;5033433;28;20365;-75
2023/02/10 17:16:41;;;;;;;;;;;;;;;;;;5033937;28;20362;-75
2023/02/10 17:19:07;;;;;;;;;;;;;;;;;;5034013;28;19915;-76
2023/02/10 17:21:33;;;;;;;;;;;;;;;;;;5034243;28;19932;-76
2023/02/10 17:23:59;;;;;;;;;;;;;;;;;;5034264;28;19947;-75
2023/02/10 17:26:25;;;;;;;;;;;;;;;;;;5033725;28;20368;-74
2023/02/10 17:28:51;;;;;;;;;;;;;;;;;;5032983;28;20000;-75
2023/02/10 17:31:16;;;;;;;;;;;;;;;;;;5032299;28;19941;-76
2023/02/10 17:33:48;;;;;;;;;;;;;;;;;;5034122;28;20370;-75
2023/02/10 17:36:14;;;;;;;;;;;;;;;;;;5032429;28;19955;-75
2023/02/10 17:38:49;;;;;;;;;;;;;;;;;;5032262;28;19910;-76
2023/02/10 17:41:15;;;;;;;;;;;;;;;;;;5032207;28;19910;-76
2023/02/10 17:43:43;;;;;;;;;;;;;;;;;;5029333;28;19920;-75
2023/02/10 17:46:09;;;;;;;;;;;;;;;;;;5033673;28;19913;-75
2023/02/10 17:48:35;;;;;;;;;;;;;;;;;;5032442;28;19913;-74
2023/02/10 17:51:01;;;;;;;;;;;;;;;;;;5031979;28;19909;-74
2023/02/10 17:53:27;;;;;;;;;;;;;;;;;;5032959;28;19909;-76
2023/02/10 17:55:53;;;;;;;;;;;;;;;;;;5031367;28;19971;-76
2023/02/10 17:58:18;;;;;;;;;;;;;;;;;;5031236;28;19952;-76
2023/02/10 18:00:44;;;;;;;;;;;;;;;;;;5033207;28;20332;-75
2023/02/10 18:03:12;;;;;;;;;;;;;;;;;;5034588;28;19959;-76
2023/02/10 18:05:39;;;;;;;;;;;;;;;;;;5033062;28;19959;-76
2023/02/10 18:08:05;;;;;;;;;;;;;;;;;;5032630;28;19917;-76
2023/02/10 18:10:31;;;;;;;;;;;;;;;;;;5031415;28;19917;-77
2023/02/10 18:12:56;;;;;;;;;;;;;;;;;;5034891;28;19909;-76
2023/02/10 18:15:22;;;;;;;;;;;;;;;;;;5033041;28;19951;-76
2023/02/10 18:17:48;;;;;;;;;;;;;;;;;;5033871;28;20469;-77
2023/02/10 18:20:14;;;;;;;;;;;;;;;;;;5033058;28;19916;-75
2023/02/10 18:22:40;;;;;;;;;;;;;;;;;;5032290;28;19979;-76
2023/02/10 18:25:06;;;;;;;;;;;;;;;;;;5032584;28;20007;-77
2023/02/10 18:27:32;;;;;;;;;;;;;;;;;;5032958;28;20435;-76
2023/02/10 18:29:58;;;;;;;;;;;;;;;;;;5032930;28;19909;-77
2023/02/10 18:32:24;;;;;;;;;;;;;;;;;;5033203;28;19948;-77
2023/02/10 18:34:50;;;;;;;;;;;;;;;;;;5033769;28;20538;-77
2023/02/10 18:37:16;;;;;;;;;;;;;;;;;;5032274;28;20285;-78
2023/02/10 18:39:42;;;;;;;;;;;;;;;;;;5034288;28;19910;-77
2023/02/10 18:42:08;;;;;;;;;;;;;;;;;;5036746;28;19909;-76
2023/02/10 18:44:34;;;;;;;;;;;;;;;;;;5038523;28;19916;-77
2023/02/10 18:47:00;;;;;;;;;;;;;;;;;;5037542;28;19913;-76
2023/02/10 18:49:26;;;;;;;;;;;;;;;;;;5036510;28;19920;-77
2023/02/10 18:51:53;;;;;;;;;;;;;;;;;;5036810;28;19913;-77
2023/02/10 18:54:19;;;;;;;;;;;;;;;;;;5037485;28;19959;-77
2023/02/10 18:56:45;;;;;;;;;;;;;;;;;;5038631;28;19913;-76
2023/02/10 18:59:11;;;;;;;;;;;;;;;;;;5036125;28;19917;-76
2023/02/10 19:01:37;;;;;;;;;;;;;;;;;;5036575;28;19909;-77
2023/02/10 19:04:03;;;;;;;;;;;;;;;;;;5038337;28;19936;-77
2023/02/10 19:06:29;;;;;;;;;;;;;;;;;;5035409;28;20016;-77
2023/02/10 19:08:55;;;;;;;;;;;;;;;;;;5037516;28;19913;-77
2023/02/10 19:11:20;;;;;;;;;;;;;;;;;;5036142;28;19974;-77
2023/02/10 19:13:46;;;;;;;;;;;;;;;;;;5037892;28;19909;-77
2023/02/10 19:16:12;;;;;;;;;;;;;;;;;;5034777;28;19909;-78
2023/02/10 19:18:38;;;;;;;;;;;;;;;;;;5036711;28;20299;-77
2023/02/10 19:21:10;;;;;;;;;;;;;;;;;;5037277;28;19909;-76
2023/02/10 19:23:35;;;;;;;;;;;;;;;;;;5036596;28;20344;-76
2023/02/10 19:26:01;;;;;;;;;;;;;;;;;;5036874;28;19975;-76
2023/02/10 19:28:27;;;;;;;;;;;;;;;;;;5035748;28;19909;-76
2023/02/10 19:30:53;;;;;;;;;;;;;;;;;;5033562;28;20289;-76
2023/02/10 19:33:19;;;;;;;;;;;;;;;;;;5035637;28;19910;-76
2023/02/10 19:35:45;;;;;;;;;;;;;;;;;;5036242;28;19909;-76
2023/02/10 19:38:11;;;;;;;;;;;;;;;;;;5035916;28;19932;-77
2023/02/10 19:40:37;;;;;;;;;;;;;;;;;;5035591;28;19909;-77
2023/02/10 19:43:03;;;;;;;;;;;;;;;;;;5034416;28;19959;-77
2023/02/10 19:45:28;;;;;;;;;;;;;;;;;;5036455;28;20366;-77
2023/02/10 19:47:54;;;;;;;;;;;;;;;;;;5036852;28;19919;-75
2023/02/10 19:50:20;;;;;;;;;;;;;;;;;;5035945;28;19909;-77
2023/02/10 19:52:46;;;;;;;;;;;;;;;;;;5036110;28;20650;-77
2023/02/10 19:55:12;;;;;;;;;;;;;;;;;;5035681;28;20405;-78
2023/02/10 19:57:38;;;;;;;;;;;;;;;;;;5034553;28;19999;-77
2023/02/10 20:00:04;;;;;;;;;;;;;;;;;;5057646;22;19929;-80
2023/02/10 20:02:30;;;;;;;;;;;;;;;;;;5034914;28;19958;-81
2023/02/10 20:04:56;;;;;;;;;;;;;;;;;;5035342;28;19909;-81
2023/02/10 20:07:22;;;;;;;;;;;;;;;;;;5035249;28;19909;-81
2023/02/10 20:09:48;;;;;;;;;;;;;;;;;;5035175;28;19952;-80
2023/02/10 20:12:14;;;;;;;;;;;;;;;;;;5034870;28;19916;-80
2023/02/10 20:14:40;;;;;;;;;;;;;;;;;;5053795;28;19917;-82
2023/02/10 20:20:14;;;;;;;;;;;;;;;;;;5059563;28;19985;-82
2023/02/10 20:25:28;;;;;;;;;;;;;;;;;;5056245;28;19971;-82
2023/02/10 20:28:02;;;;;;;;;;;;;;;;;;5056847;28;19909;-82
2023/02/10 20:30:28;;;;;;;;;;;;;;;;;;5053437;28;19913;-82
2023/02/10 20:32:55;;;;;;;;;;;;;;;;;;5056792;28;19945;-82
2023/02/10 20:35:21;;;;;;;;;;;;;;;;;;5052922;28;19909;-82
2023/02/10 20:40:38;;;;;;;;;;;;;;;;;;5054887;28;19939;-81
2023/02/10 20:43:06;;;;;;;;;;;;;;;;;;5058468;28;19905;-82
2023/02/10 20:45:34;;;;;;;;;;;;;;;;;;5054131;28;19913;-82
2023/02/10 20:48:03;;;;;;;;;;;;;;;;;;5055821;28;19900;-82
2023/02/10 20:50:29;;;;;;;;;;;;;;;;;;5059062;28;19893;-82